sensor_id;sensor_type;location;lat;lon;timestamp;P1;durP1;ratioP1;P2;durP2;ratioP2
16820;SDS011;8527;49.740;6.604;2023-09-19T00:03:06;23.50;;;5.10;;
16820;SDS011;8527;49.740;6.604;2023-09-19T00:08:17;12.57;;;4.90;;
16820;SDS011;8527;49.740;6.604;2023-09-19T00:13:23;9.57;;;5.03;;
16820;SDS011;8527;49.740;6.604;2023-09-19T00:18:25;10.23;;;4.57;;
16820;SDS011;8527;49.740;6.604;2023-09-19T00:23:32;11.90;;;5.18;;
16820;SDS011;8527;49.740;6.604;2023-09-19T00:28:39;21.58;;;5.18;;
16820;SDS011;8527;49.740;6.604;2023-09-19T00:33:40;11.68;;;4.65;;
16820;SDS011;8527;49.740;6.604;2023-09-19T00:38:43;15.73;;;5.20;;
16820;SDS011;8527;49.740;6.604;2023-09-19T00:43:44;10.45;;;4.15;;
16820;SDS011;8527;49.740;6.604;2023-09-19T00:48:43;15.07;;;4.85;;
16820;SDS011;8527;49.740;6.604;2023-09-19T00:53:42;11.52;;;4.80;;
16820;SDS011;8527;49.740;6.604;2023-09-19T00:58:47;12.52;;;4.15;;
16820;SDS011;8527;49.740;6.604;2023-09-19T01:03:51;10.05;;;4.40;;
16820;SDS011;8527;49.740;6.604;2023-09-19T01:08:53;14.50;;;4.35;;
16820;SDS011;8527;49.740;6.604;2023-09-19T01:13:58;15.82;;;4.85;;
16820;SDS011;8527;49.740;6.604;2023-09-19T01:19:16;16.08;;;4.88;;
16820;SDS011;8527;49.740;6.604;2023-09-19T01:35:22;17.10;;;5.10;;
16820;SDS011;8527;49.740;6.604;2023-09-19T01:40:23;15.02;;;4.43;;
16820;SDS011;8527;49.740;6.604;2023-09-19T01:45:42;17.60;;;5.43;;
16820;SDS011;8527;49.740;6.604;2023-09-19T01:50:59;13.77;;;4.53;;
16820;SDS011;8527;49.740;6.604;2023-09-19T01:55:59;17.30;;;4.57;;
16820;SDS011;8527;49.740;6.604;2023-09-19T02:01:03;12.95;;;4.40;;
16820;SDS011;8527;49.740;6.604;2023-09-19T02:06:03;13.95;;;4.38;;
16820;SDS011;8527;49.740;6.604;2023-09-19T02:11:09;10.20;;;4.18;;
16820;SDS011;8527;49.740;6.604;2023-09-19T02:16:14;12.70;;;4.22;;
16820;SDS011;8527;49.740;6.604;2023-09-19T02:21:25;21.77;;;4.70;;
16820;SDS011;8527;49.740;6.604;2023-09-19T02:26:24;15.15;;;4.78;;
16820;SDS011;8527;49.740;6.604;2023-09-19T02:31:25;17.20;;;4.70;;
16820;SDS011;8527;49.740;6.604;2023-09-19T02:36:25;15.85;;;4.45;;
16820;SDS011;8527;49.740;6.604;2023-09-19T02:41:27;16.75;;;4.30;;
16820;SDS011;8527;49.740;6.604;2023-09-19T02:46:30;13.00;;;3.67;;
16820;SDS011;8527;49.740;6.604;2023-09-19T02:51:29;15.57;;;4.38;;
16820;SDS011;8527;49.740;6.604;2023-09-19T02:56:34;11.82;;;4.07;;
16820;SDS011;8527;49.740;6.604;2023-09-19T03:06:44;12.20;;;3.80;;
16820;SDS011;8527;49.740;6.604;2023-09-19T03:11:50;9.45;;;3.85;;
16820;SDS011;8527;49.740;6.604;2023-09-19T03:16:52;17.20;;;3.90;;
16820;SDS011;8527;49.740;6.604;2023-09-19T03:21:51;10.52;;;4.07;;
16820;SDS011;8527;49.740;6.604;2023-09-19T03:26:52;7.60;;;3.47;;
16820;SDS011;8527;49.740;6.604;2023-09-19T03:32:00;12.95;;;3.58;;
16820;SDS011;8527;49.740;6.604;2023-09-19T03:36:59;21.13;;;3.83;;
16820;SDS011;8527;49.740;6.604;2023-09-19T03:41:58;20.77;;;4.68;;
16820;SDS011;8527;49.740;6.604;2023-09-19T03:47:00;16.27;;;4.07;;
16820;SDS011;8527;49.740;6.604;2023-09-19T03:52:03;12.10;;;3.75;;
16820;SDS011;8527;49.740;6.604;2023-09-19T03:57:03;17.55;;;3.92;;
16820;SDS011;8527;49.740;6.604;2023-09-19T04:02:05;15.93;;;3.80;;
16820;SDS011;8527;49.740;6.604;2023-09-19T04:07:17;14.48;;;4.03;;
16820;SDS011;8527;49.740;6.604;2023-09-19T04:12:24;11.20;;;4.00;;
16820;SDS011;8527;49.740;6.604;2023-09-19T04:17:26;12.18;;;3.75;;
16820;SDS011;8527;49.740;6.604;2023-09-19T04:22:25;20.20;;;4.00;;
16820;SDS011;8527;49.740;6.604;2023-09-19T04:27:29;12.18;;;4.00;;
16820;SDS011;8527;49.740;6.604;2023-09-19T04:32:33;14.40;;;3.70;;
16820;SDS011;8527;49.740;6.604;2023-09-19T04:37:33;10.93;;;3.70;;
16820;SDS011;8527;49.740;6.604;2023-09-19T04:42:33;15.05;;;3.95;;
16820;SDS011;8527;49.740;6.604;2023-09-19T04:47:34;11.52;;;3.47;;
16820;SDS011;8527;49.740;6.604;2023-09-19T04:52:34;14.43;;;3.80;;
16820;SDS011;8527;49.740;6.604;2023-09-19T04:57:32;18.38;;;3.80;;
16820;SDS011;8527;49.740;6.604;2023-09-19T05:02:39;10.73;;;3.63;;
16820;SDS011;8527;49.740;6.604;2023-09-19T05:07:41;10.05;;;3.92;;
16820;SDS011;8527;49.740;6.604;2023-09-19T05:12:41;14.52;;;3.70;;
16820;SDS011;8527;49.740;6.604;2023-09-19T05:17:45;17.85;;;4.15;;
16820;SDS011;8527;49.740;6.604;2023-09-19T05:22:46;17.40;;;4.40;;
16820;SDS011;8527;49.740;6.604;2023-09-19T05:27:45;10.52;;;3.83;;
16820;SDS011;8527;49.740;6.604;2023-09-19T05:32:48;21.67;;;4.43;;
16820;SDS011;8527;49.740;6.604;2023-09-19T05:37:50;18.02;;;4.18;;
16820;SDS011;8527;49.740;6.604;2023-09-19T05:42:50;11.95;;;3.80;;
16820;SDS011;8527;49.740;6.604;2023-09-19T05:47:51;14.35;;;3.97;;
16820;SDS011;8527;49.740;6.604;2023-09-19T05:53:01;26.83;;;4.57;;
16820;SDS011;8527;49.740;6.604;2023-09-19T05:58:00;17.77;;;4.10;;
16820;SDS011;8527;49.740;6.604;2023-09-19T06:03:04;26.70;;;4.45;;
16820;SDS011;8527;49.740;6.604;2023-09-19T06:08:03;18.00;;;3.70;;
16820;SDS011;8527;49.740;6.604;2023-09-19T06:13:07;20.08;;;4.32;;
16820;SDS011;8527;49.740;6.604;2023-09-19T06:18:12;16.27;;;3.95;;
16820;SDS011;8527;49.740;6.604;2023-09-19T06:28:15;21.65;;;4.18;;
16820;SDS011;8527;49.740;6.604;2023-09-19T06:33:21;17.60;;;3.70;;
16820;SDS011;8527;49.740;6.604;2023-09-19T06:38:20;19.05;;;3.67;;
16820;SDS011;8527;49.740;6.604;2023-09-19T06:43:21;17.98;;;3.95;;
16820;SDS011;8527;49.740;6.604;2023-09-19T06:48:21;19.83;;;4.32;;
16820;SDS011;8527;49.740;6.604;2023-09-19T06:53:20;21.85;;;4.50;;
16820;SDS011;8527;49.740;6.604;2023-09-19T06:58:19;23.33;;;4.40;;
16820;SDS011;8527;49.740;6.604;2023-09-19T07:03:23;14.48;;;3.75;;
16820;SDS011;8527;49.740;6.604;2023-09-19T07:08:24;25.40;;;3.67;;
16820;SDS011;8527;49.740;6.604;2023-09-19T07:13:23;24.08;;;3.88;;
16820;SDS011;8527;49.740;6.604;2023-09-19T07:18:24;19.77;;;3.85;;
16820;SDS011;8527;49.740;6.604;2023-09-19T07:23:23;21.73;;;4.13;;
16820;SDS011;8527;49.740;6.604;2023-09-19T07:28:21;25.83;;;4.35;;
16820;SDS011;8527;49.740;6.604;2023-09-19T07:33:25;19.55;;;4.30;;
16820;SDS011;8527;49.740;6.604;2023-09-19T07:38:24;17.95;;;3.75;;
16820;SDS011;8527;49.740;6.604;2023-09-19T07:43:25;26.17;;;4.50;;
16820;SDS011;8527;49.740;6.604;2023-09-19T07:48:27;19.58;;;4.47;;
16820;SDS011;8527;49.740;6.604;2023-09-19T07:53:26;16.40;;;4.20;;
16820;SDS011;8527;49.740;6.604;2023-09-19T07:58:27;23.48;;;4.40;;
16820;SDS011;8527;49.740;6.604;2023-09-19T08:03:28;20.63;;;4.00;;
16820;SDS011;8527;49.740;6.604;2023-09-19T08:08:27;18.38;;;4.57;;
16820;SDS011;8527;49.740;6.604;2023-09-19T08:13:26;22.75;;;4.57;;
16820;SDS011;8527;49.740;6.604;2023-09-19T08:18:28;14.88;;;4.25;;
16820;SDS011;8527;49.740;6.604;2023-09-19T08:23:29;22.65;;;4.60;;
16820;SDS011;8527;49.740;6.604;2023-09-19T08:28:28;24.65;;;4.10;;
16820;SDS011;8527;49.740;6.604;2023-09-19T08:33:29;22.15;;;5.03;;
16820;SDS011;8527;49.740;6.604;2023-09-19T08:38:28;18.55;;;4.10;;
16820;SDS011;8527;49.740;6.604;2023-09-19T08:43:34;21.48;;;3.83;;
16820;SDS011;8527;49.740;6.604;2023-09-19T08:48:37;21.73;;;3.40;;
16820;SDS011;8527;49.740;6.604;2023-09-19T08:53:47;14.40;;;3.10;;
16820;SDS011;8527;49.740;6.604;2023-09-19T08:58:50;16.83;;;3.23;;
16820;SDS011;8527;49.740;6.604;2023-09-19T09:03:56;17.38;;;3.20;;
16820;SDS011;8527;49.740;6.604;2023-09-19T09:08:55;17.95;;;3.65;;
16820;SDS011;8527;49.740;6.604;2023-09-19T09:13:54;15.18;;;3.47;;
16820;SDS011;8527;49.740;6.604;2023-09-19T09:18:56;14.15;;;3.33;;
16820;SDS011;8527;49.740;6.604;2023-09-19T09:23:54;20.85;;;4.13;;
16820;SDS011;8527;49.740;6.604;2023-09-19T09:28:53;21.60;;;3.75;;
16820;SDS011;8527;49.740;6.604;2023-09-19T09:33:57;19.38;;;4.03;;
16820;SDS011;8527;49.740;6.604;2023-09-19T09:38:59;19.35;;;4.07;;
16820;SDS011;8527;49.740;6.604;2023-09-19T09:44:14;12.73;;;3.50;;
16820;SDS011;8527;49.740;6.604;2023-09-19T09:49:22;18.42;;;3.47;;
16820;SDS011;8527;49.740;6.604;2023-09-19T09:54:29;10.43;;;3.13;;
16820;SDS011;8527;49.740;6.604;2023-09-19T09:59:48;17.88;;;3.15;;
16820;SDS011;8527;49.740;6.604;2023-09-19T10:04:51;15.43;;;2.80;;
16820;SDS011;8527;49.740;6.604;2023-09-19T10:10:03;22.58;;;3.65;;
16820;SDS011;8527;49.740;6.604;2023-09-19T10:15:11;16.92;;;2.78;;
16820;SDS011;8527;49.740;6.604;2023-09-19T10:20:18;20.30;;;3.17;;
16820;SDS011;8527;49.740;6.604;2023-09-19T10:25:35;11.55;;;2.95;;
16820;SDS011;8527;49.740;6.604;2023-09-19T10:30:40;12.57;;;2.78;;
16820;SDS011;8527;49.740;6.604;2023-09-19T10:35:45;13.27;;;2.70;;
16820;SDS011;8527;49.740;6.604;2023-09-19T10:40:49;10.60;;;2.33;;
16820;SDS011;8527;49.740;6.604;2023-09-19T10:45:55;13.10;;;3.22;;
16820;SDS011;8527;49.740;6.604;2023-09-19T10:51:05;15.10;;;2.65;;
16820;SDS011;8527;49.740;6.604;2023-09-19T10:56:07;16.10;;;2.40;;
16820;SDS011;8527;49.740;6.604;2023-09-19T11:01:12;12.77;;;2.33;;
16820;SDS011;8527;49.740;6.604;2023-09-19T11:06:15;18.58;;;2.80;;
16820;SDS011;8527;49.740;6.604;2023-09-19T11:16:37;10.90;;;2.20;;
16820;SDS011;8527;49.740;6.604;2023-09-19T11:21:42;10.52;;;2.85;;
16820;SDS011;8527;49.740;6.604;2023-09-19T11:27:08;14.43;;;2.60;;
16820;SDS011;8527;49.740;6.604;2023-09-19T11:32:15;13.40;;;2.53;;
16820;SDS011;8527;49.740;6.604;2023-09-19T11:42:50;12.13;;;2.50;;
16820;SDS011;8527;49.740;6.604;2023-09-19T11:47:49;14.10;;;2.47;;
16820;SDS011;8527;49.740;6.604;2023-09-19T11:52:48;15.60;;;2.55;;
16820;SDS011;8527;49.740;6.604;2023-09-19T11:57:53;13.23;;;2.47;;
16820;SDS011;8527;49.740;6.604;2023-09-19T12:02:55;13.23;;;2.60;;
16820;SDS011;8527;49.740;6.604;2023-09-19T12:08:01;13.27;;;2.53;;
16820;SDS011;8527;49.740;6.604;2023-09-19T12:13:06;13.43;;;2.47;;
16820;SDS011;8527;49.740;6.604;2023-09-19T12:18:25;14.65;;;3.88;;
16820;SDS011;8527;49.740;6.604;2023-09-19T12:23:25;10.83;;;2.50;;
16820;SDS011;8527;49.740;6.604;2023-09-19T12:28:26;10.40;;;2.50;;
16820;SDS011;8527;49.740;6.604;2023-09-19T12:33:29;10.15;;;2.70;;
16820;SDS011;8527;49.740;6.604;2023-09-19T12:38:29;12.30;;;2.78;;
16820;SDS011;8527;49.740;6.604;2023-09-19T12:43:30;8.80;;;2.55;;
16820;SDS011;8527;49.740;6.604;2023-09-19T12:48:44;9.00;;;2.35;;
16820;SDS011;8527;49.740;6.604;2023-09-19T12:53:43;10.80;;;2.80;;
16820;SDS011;8527;49.740;6.604;2023-09-19T12:58:52;8.73;;;2.13;;
16820;SDS011;8527;49.740;6.604;2023-09-19T13:09:13;11.23;;;2.28;;
16820;SDS011;8527;49.740;6.604;2023-09-19T13:14:19;12.95;;;2.67;;
16820;SDS011;8527;49.740;6.604;2023-09-19T13:19:35;13.05;;;2.53;;
16820;SDS011;8527;49.740;6.604;2023-09-19T13:24:44;12.55;;;2.70;;
16820;SDS011;8527;49.740;6.604;2023-09-19T13:29:49;9.10;;;2.53;;
16820;SDS011;8527;49.740;6.604;2023-09-19T13:34:55;10.60;;;2.78;;
16820;SDS011;8527;49.740;6.604;2023-09-19T13:39:53;7.28;;;2.17;;
16820;SDS011;8527;49.740;6.604;2023-09-19T13:45:04;8.50;;;2.40;;
16820;SDS011;8527;49.740;6.604;2023-09-19T13:50:09;7.57;;;2.10;;
16820;SDS011;8527;49.740;6.604;2023-09-19T13:55:19;6.70;;;2.30;;
16820;SDS011;8527;49.740;6.604;2023-09-19T14:00:24;9.48;;;2.70;;
16820;SDS011;8527;49.740;6.604;2023-09-19T14:05:23;6.35;;;1.95;;
16820;SDS011;8527;49.740;6.604;2023-09-19T14:10:23;12.27;;;2.42;;
16820;SDS011;8527;49.740;6.604;2023-09-19T14:15:32;8.43;;;2.10;;
16820;SDS011;8527;49.740;6.604;2023-09-19T14:20:37;9.10;;;2.10;;
16820;SDS011;8527;49.740;6.604;2023-09-19T14:25:37;7.32;;;2.40;;
16820;SDS011;8527;49.740;6.604;2023-09-19T14:30:46;7.05;;;2.30;;
16820;SDS011;8527;49.740;6.604;2023-09-19T14:35:47;7.32;;;2.33;;
16820;SDS011;8527;49.740;6.604;2023-09-19T14:40:46;7.88;;;2.10;;
16820;SDS011;8527;49.740;6.604;2023-09-19T14:45:47;9.38;;;2.20;;
16820;SDS011;8527;49.740;6.604;2023-09-19T14:50:49;4.85;;;1.92;;
16820;SDS011;8527;49.740;6.604;2023-09-19T14:55:50;8.70;;;2.40;;
16820;SDS011;8527;49.740;6.604;2023-09-19T15:00:53;7.05;;;2.15;;
16820;SDS011;8527;49.740;6.604;2023-09-19T15:05:59;8.25;;;2.25;;
16820;SDS011;8527;49.740;6.604;2023-09-19T15:11:00;7.88;;;2.03;;
16820;SDS011;8527;49.740;6.604;2023-09-19T15:16:03;9.15;;;2.28;;
16820;SDS011;8527;49.740;6.604;2023-09-19T15:21:04;6.68;;;2.28;;
16820;SDS011;8527;49.740;6.604;2023-09-19T15:26:02;8.75;;;2.60;;
16820;SDS011;8527;49.740;6.604;2023-09-19T15:31:07;8.55;;;2.20;;
16820;SDS011;8527;49.740;6.604;2023-09-19T15:36:09;10.75;;;2.35;;
16820;SDS011;8527;49.740;6.604;2023-09-19T15:41:16;6.85;;;2.47;;
16820;SDS011;8527;49.740;6.604;2023-09-19T15:46:20;10.77;;;2.53;;
16820;SDS011;8527;49.740;6.604;2023-09-19T15:51:22;5.22;;;1.98;;
16820;SDS011;8527;49.740;6.604;2023-09-19T15:56:30;5.82;;;2.30;;
16820;SDS011;8527;49.740;6.604;2023-09-19T16:01:34;5.10;;;2.22;;
16820;SDS011;8527;49.740;6.604;2023-09-19T16:06:38;5.75;;;2.20;;
16820;SDS011;8527;49.740;6.604;2023-09-19T16:11:37;7.35;;;2.25;;
16820;SDS011;8527;49.740;6.604;2023-09-19T16:16:39;5.88;;;2.15;;
16820;SDS011;8527;49.740;6.604;2023-09-19T16:21:40;7.18;;;2.30;;
16820;SDS011;8527;49.740;6.604;2023-09-19T16:26:39;6.68;;;2.30;;
16820;SDS011;8527;49.740;6.604;2023-09-19T16:31:43;8.57;;;2.47;;
16820;SDS011;8527;49.740;6.604;2023-09-19T16:36:44;4.55;;;2.15;;
16820;SDS011;8527;49.740;6.604;2023-09-19T16:41:43;4.57;;;2.25;;
16820;SDS011;8527;49.740;6.604;2023-09-19T16:46:45;4.03;;;2.13;;
16820;SDS011;8527;49.740;6.604;2023-09-19T16:51:47;4.47;;;2.40;;
16820;SDS011;8527;49.740;6.604;2023-09-19T16:56:45;11.52;;;2.72;;
16820;SDS011;8527;49.740;6.604;2023-09-19T17:01:46;6.78;;;2.58;;
16820;SDS011;8527;49.740;6.604;2023-09-19T17:06:49;5.97;;;2.40;;
16820;SDS011;8527;49.740;6.604;2023-09-19T17:11:47;7.82;;;2.47;;
16820;SDS011;8527;49.740;6.604;2023-09-19T17:16:48;5.82;;;2.30;;
16820;SDS011;8527;49.740;6.604;2023-09-19T17:21:47;7.63;;;2.53;;
16820;SDS011;8527;49.740;6.604;2023-09-19T17:26:45;6.00;;;2.38;;
16820;SDS011;8527;49.740;6.604;2023-09-19T17:31:44;6.07;;;2.65;;
16820;SDS011;8527;49.740;6.604;2023-09-19T17:36:48;7.18;;;2.65;;
16820;SDS011;8527;49.740;6.604;2023-09-19T17:41:47;11.32;;;3.50;;
16820;SDS011;8527;49.740;6.604;2023-09-19T17:46:45;8.18;;;2.80;;
16820;SDS011;8527;49.740;6.604;2023-09-19T17:51:43;7.20;;;3.13;;
16820;SDS011;8527;49.740;6.604;2023-09-19T17:56:45;4.45;;;2.53;;
16820;SDS011;8527;49.740;6.604;2023-09-19T18:01:44;5.35;;;2.60;;
16820;SDS011;8527;49.740;6.604;2023-09-19T18:06:42;5.80;;;2.58;;
16820;SDS011;8527;49.740;6.604;2023-09-19T18:11:46;10.45;;;2.70;;
16820;SDS011;8527;49.740;6.604;2023-09-19T18:16:44;4.65;;;2.33;;
16820;SDS011;8527;49.740;6.604;2023-09-19T18:21:48;8.50;;;2.70;;
16820;SDS011;8527;49.740;6.604;2023-09-19T18:26:49;6.95;;;2.70;;
16820;SDS011;8527;49.740;6.604;2023-09-19T18:31:47;6.35;;;2.45;;
16820;SDS011;8527;49.740;6.604;2023-09-19T18:36:46;12.10;;;2.78;;
16820;SDS011;8527;49.740;6.604;2023-09-19T18:41:45;6.22;;;2.55;;
16820;SDS011;8527;49.740;6.604;2023-09-19T18:46:48;6.07;;;2.60;;
16820;SDS011;8527;49.740;6.604;2023-09-19T18:51:52;7.70;;;2.53;;
16820;SDS011;8527;49.740;6.604;2023-09-19T18:56:51;5.97;;;2.42;;
16820;SDS011;8527;49.740;6.604;2023-09-19T19:01:55;14.68;;;2.88;;
16820;SDS011;8527;49.740;6.604;2023-09-19T19:06:58;11.45;;;3.42;;
16820;SDS011;8527;49.740;6.604;2023-09-19T19:11:58;5.07;;;2.85;;
16820;SDS011;8527;49.740;6.604;2023-09-19T19:17:02;11.07;;;2.70;;
16820;SDS011;8527;49.740;6.604;2023-09-19T19:22:00;7.93;;;3.03;;
16820;SDS011;8527;49.740;6.604;2023-09-19T19:26:59;6.85;;;2.42;;
16820;SDS011;8527;49.740;6.604;2023-09-19T19:32:03;6.50;;;2.53;;
16820;SDS011;8527;49.740;6.604;2023-09-19T19:37:03;8.70;;;2.60;;
16820;SDS011;8527;49.740;6.604;2023-09-19T19:42:07;15.25;;;3.00;;
16820;SDS011;8527;49.740;6.604;2023-09-19T19:47:08;5.40;;;2.65;;
16820;SDS011;8527;49.740;6.604;2023-09-19T19:52:07;10.45;;;2.70;;
16820;SDS011;8527;49.740;6.604;2023-09-19T19:57:05;6.47;;;2.80;;
16820;SDS011;8527;49.740;6.604;2023-09-19T20:02:09;11.98;;;2.80;;
16820;SDS011;8527;49.740;6.604;2023-09-19T20:07:07;7.40;;;2.63;;
16820;SDS011;8527;49.740;6.604;2023-09-19T20:12:07;9.10;;;2.90;;
16820;SDS011;8527;49.740;6.604;2023-09-19T20:17:08;10.75;;;2.90;;
16820;SDS011;8527;49.740;6.604;2023-09-19T20:22:07;7.63;;;2.60;;
16820;SDS011;8527;49.740;6.604;2023-09-19T20:27:08;5.57;;;2.65;;
16820;SDS011;8527;49.740;6.604;2023-09-19T20:32:10;8.00;;;2.70;;
16820;SDS011;8527;49.740;6.604;2023-09-19T20:37:09;5.43;;;2.75;;
16820;SDS011;8527;49.740;6.604;2023-09-19T20:42:07;10.25;;;2.88;;
16820;SDS011;8527;49.740;6.604;2023-09-19T20:47:06;9.07;;;3.10;;
16820;SDS011;8527;49.740;6.604;2023-09-19T20:52:08;7.95;;;2.70;;
16820;SDS011;8527;49.740;6.604;2023-09-19T20:57:07;11.50;;;2.80;;
16820;SDS011;8527;49.740;6.604;2023-09-19T21:02:06;7.38;;;3.28;;
16820;SDS011;8527;49.740;6.604;2023-09-19T21:07:09;7.57;;;2.95;;
16820;SDS011;8527;49.740;6.604;2023-09-19T21:12:08;8.38;;;3.08;;
16820;SDS011;8527;49.740;6.604;2023-09-19T21:17:09;6.65;;;2.60;;
16820;SDS011;8527;49.740;6.604;2023-09-19T21:22:10;13.00;;;3.00;;
16820;SDS011;8527;49.740;6.604;2023-09-19T21:27:08;5.57;;;2.53;;
16820;SDS011;8527;49.740;6.604;2023-09-19T21:32:09;8.48;;;3.08;;
16820;SDS011;8527;49.740;6.604;2023-09-19T21:37:10;8.80;;;3.30;;
16820;SDS011;8527;49.740;6.604;2023-09-19T21:42:11;6.72;;;2.88;;
16820;SDS011;8527;49.740;6.604;2023-09-19T21:47:09;9.07;;;2.70;;
16820;SDS011;8527;49.740;6.604;2023-09-19T21:52:07;6.47;;;2.40;;
16820;SDS011;8527;49.740;6.604;2023-09-19T21:57:08;12.90;;;3.22;;
16820;SDS011;8527;49.740;6.604;2023-09-19T22:02:07;12.23;;;2.90;;
16820;SDS011;8527;49.740;6.604;2023-09-19T22:07:06;8.52;;;2.90;;
16820;SDS011;8527;49.740;6.604;2023-09-19T22:12:07;13.10;;;2.85;;
16820;SDS011;8527;49.740;6.604;2023-09-19T22:17:07;7.43;;;2.90;;
16820;SDS011;8527;49.740;6.604;2023-09-19T22:22:08;10.18;;;3.22;;
16820;SDS011;8527;49.740;6.604;2023-09-19T22:27:14;8.63;;;3.63;;
16820;SDS011;8527;49.740;6.604;2023-09-19T22:32:15;7.30;;;2.60;;
16820;SDS011;8527;49.740;6.604;2023-09-19T22:37:13;10.73;;;2.78;;
16820;SDS011;8527;49.740;6.604;2023-09-19T22:42:15;8.10;;;3.38;;
16820;SDS011;8527;49.740;6.604;2023-09-19T22:47:20;5.53;;;2.33;;
16820;SDS011;8527;49.740;6.604;2023-09-19T22:52:19;10.88;;;2.72;;
16820;SDS011;8527;49.740;6.604;2023-09-19T22:57:21;7.20;;;2.70;;
16820;SDS011;8527;49.740;6.604;2023-09-19T23:02:20;9.98;;;2.70;;
16820;SDS011;8527;49.740;6.604;2023-09-19T23:07:23;7.00;;;2.50;;
16820;SDS011;8527;49.740;6.604;2023-09-19T23:12:24;10.10;;;2.83;;
16820;SDS011;8527;49.740;6.604;2023-09-19T23:17:23;9.68;;;2.83;;
16820;SDS011;8527;49.740;6.604;2023-09-19T23:22:26;6.60;;;2.78;;
16820;SDS011;8527;49.740;6.604;2023-09-19T23:27:27;8.02;;;3.10;;
16820;SDS011;8527;49.740;6.604;2023-09-19T23:32:30;12.60;;;2.80;;
16820;SDS011;8527;49.740;6.604;2023-09-19T23:37:34;16.42;;;2.80;;
16820;SDS011;8527;49.740;6.604;2023-09-19T23:42:35;8.95;;;2.80;;
16820;SDS011;8527;49.740;6.604;2023-09-19T23:47:37;9.88;;;2.90;;
16820;SDS011;8527;49.740;6.604;2023-09-19T23:52:38;7.20;;;2.70;;
16820;SDS011;8527;49.740;6.604;2023-09-19T23:57:39;12.20;;;2.45;;
